sensor_id;sensor_type;location;lat;lon;timestamp;temperature;humidity
10692;DHT22;5396;50.950;6.988;2024-02-21T00:02:04;9.80;99.90
10692;DHT22;5396;50.950;6.988;2024-02-21T00:04:30;9.80;99.90
10692;DHT22;5396;50.950;6.988;2024-02-21T00:06:55;9.80;99.90
10692;DHT22;5396;50.950;6.988;2024-02-21T00:09:21;9.70;99.90
10692;DHT22;5396;50.950;6.988;2024-02-21T00:11:46;9.70;99.90
10692;DHT22;5396;50.950;6.988;2024-02-21T00:14:13;9.70;99.90
10692;DHT22;5396;50.950;6.988;2024-02-21T00:16:38;9.70;99.90
10692;DHT22;5396;50.950;6.988;2024-02-21T00:19:04;9.70;99.90
10692;DHT22;5396;50.950;6.988;2024-02-21T00:21:29;9.70;99.90
10692;DHT22;5396;50.950;6.988;2024-02-21T00:23:55;9.70;99.90
10692;DHT22;5396;50.950;6.988;2024-02-21T00:26:21;9.70;99.90
10692;DHT22;5396;50.950;6.988;2024-02-21T00:28:46;9.70;99.90
10692;DHT22;5396;50.950;6.988;2024-02-21T00:31:12;9.70;99.90
10692;DHT22;5396;50.950;6.988;2024-02-21T00:33:37;9.70;99.90
10692;DHT22;5396;50.950;6.988;2024-02-21T00:36:03;9.60;99.90
10692;DHT22;5396;50.950;6.988;2024-02-21T00:38:28;9.60;99.90
10692;DHT22;5396;50.950;6.988;2024-02-21T00:40:54;9.60;99.90
10692;DHT22;5396;50.950;6.988;2024-02-21T00:43:20;9.60;99.90
10692;DHT22;5396;50.950;6.988;2024-02-21T00:45:49;9.60;99.90
10692;DHT22;5396;50.950;6.988;2024-02-21T00:48:14;9.60;99.90
10692;DHT22;5396;50.950;6.988;2024-02-21T00:50:40;9.60;99.90
10692;DHT22;5396;50.950;6.988;2024-02-21T00:53:06;9.60;99.90
10692;DHT22;5396;50.950;6.988;2024-02-21T00:55:31;9.60;99.90
10692;DHT22;5396;50.950;6.988;2024-02-21T00:57:57;9.50;99.90
10692;DHT22;5396;50.950;6.988;2024-02-21T01:00:22;9.50;99.90
10692;DHT22;5396;50.950;6.988;2024-02-21T01:02:48;9.60;99.90
10692;DHT22;5396;50.950;6.988;2024-02-21T01:05:14;9.50;99.90
10692;DHT22;5396;50.950;6.988;2024-02-21T01:07:39;9.50;99.90
10692;DHT22;5396;50.950;6.988;2024-02-21T01:10:05;9.50;99.90
10692;DHT22;5396;50.950;6.988;2024-02-21T01:12:31;9.50;99.90
10692;DHT22;5396;50.950;6.988;2024-02-21T01:14:56;9.50;99.90
10692;DHT22;5396;50.950;6.988;2024-02-21T01:17:22;9.50;99.90
10692;DHT22;5396;50.950;6.988;2024-02-21T01:19:47;9.50;99.90
10692;DHT22;5396;50.950;6.988;2024-02-21T01:22:13;9.50;99.90
10692;DHT22;5396;50.950;6.988;2024-02-21T01:24:40;9.50;99.90
10692;DHT22;5396;50.950;6.988;2024-02-21T01:27:05;9.50;99.90
10692;DHT22;5396;50.950;6.988;2024-02-21T01:29:31;9.50;99.90
10692;DHT22;5396;50.950;6.988;2024-02-21T01:31:56;9.40;99.90
10692;DHT22;5396;50.950;6.988;2024-02-21T01:34:22;9.40;99.90
10692;DHT22;5396;50.950;6.988;2024-02-21T01:36:47;9.40;99.90
10692;DHT22;5396;50.950;6.988;2024-02-21T01:39:13;9.40;99.90
10692;DHT22;5396;50.950;6.988;2024-02-21T01:41:38;9.40;99.90
10692;DHT22;5396;50.950;6.988;2024-02-21T01:44:05;9.40;99.90
10692;DHT22;5396;50.950;6.988;2024-02-21T01:46:30;9.40;99.90
10692;DHT22;5396;50.950;6.988;2024-02-21T01:48:56;9.30;99.90
10692;DHT22;5396;50.950;6.988;2024-02-21T01:51:22;9.30;99.90
10692;DHT22;5396;50.950;6.988;2024-02-21T01:53:48;9.30;99.90
10692;DHT22;5396;50.950;6.988;2024-02-21T01:56:15;9.30;99.90
10692;DHT22;5396;50.950;6.988;2024-02-21T01:58:42;9.30;99.90
10692;DHT22;5396;50.950;6.988;2024-02-21T02:01:08;9.20;99.90
10692;DHT22;5396;50.950;6.988;2024-02-21T02:03:33;9.20;99.90
10692;DHT22;5396;50.950;6.988;2024-02-21T02:05:59;9.30;99.90
10692;DHT22;5396;50.950;6.988;2024-02-21T02:08:24;9.30;99.90
10692;DHT22;5396;50.950;6.988;2024-02-21T02:10:50;9.30;99.90
10692;DHT22;5396;50.950;6.988;2024-02-21T02:13:16;9.40;99.90
10692;DHT22;5396;50.950;6.988;2024-02-21T02:15:43;9.30;99.90
10692;DHT22;5396;50.950;6.988;2024-02-21T02:18:09;9.30;99.90
10692;DHT22;5396;50.950;6.988;2024-02-21T02:20:35;9.30;99.90
10692;DHT22;5396;50.950;6.988;2024-02-21T02:23:02;9.30;99.90
10692;DHT22;5396;50.950;6.988;2024-02-21T02:25:32;9.30;99.90
10692;DHT22;5396;50.950;6.988;2024-02-21T02:27:57;9.30;99.90
10692;DHT22;5396;50.950;6.988;2024-02-21T02:30:22;9.30;99.90
10692;DHT22;5396;50.950;6.988;2024-02-21T02:32:48;9.20;99.90
10692;DHT22;5396;50.950;6.988;2024-02-21T02:35:13;9.30;99.90
10692;DHT22;5396;50.950;6.988;2024-02-21T02:37:39;9.30;99.90
10692;DHT22;5396;50.950;6.988;2024-02-21T02:40:08;9.20;99.90
10692;DHT22;5396;50.950;6.988;2024-02-21T02:42:33;9.20;99.90
10692;DHT22;5396;50.950;6.988;2024-02-21T02:44:59;9.20;99.90
10692;DHT22;5396;50.950;6.988;2024-02-21T02:47:24;9.20;99.90
10692;DHT22;5396;50.950;6.988;2024-02-21T02:49:50;9.20;99.90
10692;DHT22;5396;50.950;6.988;2024-02-21T02:52:16;9.20;99.90
10692;DHT22;5396;50.950;6.988;2024-02-21T02:54:43;9.20;99.90
10692;DHT22;5396;50.950;6.988;2024-02-21T02:57:08;9.20;99.90
10692;DHT22;5396;50.950;6.988;2024-02-21T02:59:35;9.20;99.90
10692;DHT22;5396;50.950;6.988;2024-02-21T03:02:00;9.30;99.90
10692;DHT22;5396;50.950;6.988;2024-02-21T03:04:26;9.20;99.90
10692;DHT22;5396;50.950;6.988;2024-02-21T03:06:51;9.20;99.90
10692;DHT22;5396;50.950;6.988;2024-02-21T03:09:17;9.20;99.90
10692;DHT22;5396;50.950;6.988;2024-02-21T03:11:43;9.20;99.90
10692;DHT22;5396;50.950;6.988;2024-02-21T03:14:10;9.20;99.90
10692;DHT22;5396;50.950;6.988;2024-02-21T03:16:35;9.30;99.90
10692;DHT22;5396;50.950;6.988;2024-02-21T03:19:01;9.30;99.90
10692;DHT22;5396;50.950;6.988;2024-02-21T03:21:27;9.30;99.90
10692;DHT22;5396;50.950;6.988;2024-02-21T03:23:52;9.30;99.90
10692;DHT22;5396;50.950;6.988;2024-02-21T03:26:18;9.30;99.90
10692;DHT22;5396;50.950;6.988;2024-02-21T03:28:43;9.30;99.90
10692;DHT22;5396;50.950;6.988;2024-02-21T03:31:11;9.20;99.90
10692;DHT22;5396;50.950;6.988;2024-02-21T03:33:38;9.20;99.90
10692;DHT22;5396;50.950;6.988;2024-02-21T03:36:03;9.20;99.90
10692;DHT22;5396;50.950;6.988;2024-02-21T03:38:29;9.20;99.90
10692;DHT22;5396;50.950;6.988;2024-02-21T03:40:54;9.20;99.90
10692;DHT22;5396;50.950;6.988;2024-02-21T03:43:20;9.10;99.90
10692;DHT22;5396;50.950;6.988;2024-02-21T03:45:46;9.10;99.90
10692;DHT22;5396;50.950;6.988;2024-02-21T03:48:11;9.10;99.90
10692;DHT22;5396;50.950;6.988;2024-02-21T03:50:37;9.10;99.90
10692;DHT22;5396;50.950;6.988;2024-02-21T03:53:03;9.10;99.90
10692;DHT22;5396;50.950;6.988;2024-02-21T03:55:28;9.10;99.90
10692;DHT22;5396;50.950;6.988;2024-02-21T03:57:54;9.10;99.90
10692;DHT22;5396;50.950;6.988;2024-02-21T04:00:19;9.10;99.90
10692;DHT22;5396;50.950;6.988;2024-02-21T04:02:45;9.10;99.90
10692;DHT22;5396;50.950;6.988;2024-02-21T04:05:10;9.10;99.90
10692;DHT22;5396;50.950;6.988;2024-02-21T04:07:39;9.10;99.90
10692;DHT22;5396;50.950;6.988;2024-02-21T04:10:04;9.10;99.90
10692;DHT22;5396;50.950;6.988;2024-02-21T04:12:30;9.20;99.90
10692;DHT22;5396;50.950;6.988;2024-02-21T04:14:56;9.20;99.90
10692;DHT22;5396;50.950;6.988;2024-02-21T04:17:21;9.20;99.90
10692;DHT22;5396;50.950;6.988;2024-02-21T04:19:47;9.10;99.90
10692;DHT22;5396;50.950;6.988;2024-02-21T04:22:12;9.20;99.90
10692;DHT22;5396;50.950;6.988;2024-02-21T04:24:38;9.10;99.90
10692;DHT22;5396;50.950;6.988;2024-02-21T04:27:04;9.10;99.90
10692;DHT22;5396;50.950;6.988;2024-02-21T04:29:29;9.10;99.90
10692;DHT22;5396;50.950;6.988;2024-02-21T04:31:55;9.10;99.90
10692;DHT22;5396;50.950;6.988;2024-02-21T04:34:20;9.00;99.90
10692;DHT22;5396;50.950;6.988;2024-02-21T04:36:46;9.00;99.90
10692;DHT22;5396;50.950;6.988;2024-02-21T04:39:11;9.00;99.90
10692;DHT22;5396;50.950;6.988;2024-02-21T04:41:37;9.00;99.90
10692;DHT22;5396;50.950;6.988;2024-02-21T04:44:02;8.90;99.90
10692;DHT22;5396;50.950;6.988;2024-02-21T04:46:30;8.90;99.90
10692;DHT22;5396;50.950;6.988;2024-02-21T04:48:56;9.00;99.90
10692;DHT22;5396;50.950;6.988;2024-02-21T04:51:21;9.00;99.90
10692;DHT22;5396;50.950;6.988;2024-02-21T04:53:47;9.00;99.90
10692;DHT22;5396;50.950;6.988;2024-02-21T04:56:12;9.00;99.90
10692;DHT22;5396;50.950;6.988;2024-02-21T04:58:38;9.00;99.90
10692;DHT22;5396;50.950;6.988;2024-02-21T05:01:04;9.00;99.90
10692;DHT22;5396;50.950;6.988;2024-02-21T05:03:30;9.00;99.90
10692;DHT22;5396;50.950;6.988;2024-02-21T05:05:56;9.00;99.90
10692;DHT22;5396;50.950;6.988;2024-02-21T05:08:21;9.00;99.90
10692;DHT22;5396;50.950;6.988;2024-02-21T05:10:47;9.10;99.90
10692;DHT22;5396;50.950;6.988;2024-02-21T05:13:12;9.00;99.90
10692;DHT22;5396;50.950;6.988;2024-02-21T05:15:38;9.00;99.90
10692;DHT22;5396;50.950;6.988;2024-02-21T05:18:04;9.00;99.90
10692;DHT22;5396;50.950;6.988;2024-02-21T05:20:30;9.00;99.90
10692;DHT22;5396;50.950;6.988;2024-02-21T05:22:55;9.00;99.90
10692;DHT22;5396;50.950;6.988;2024-02-21T05:25:21;9.10;99.90
10692;DHT22;5396;50.950;6.988;2024-02-21T05:27:46;9.10;99.90
10692;DHT22;5396;50.950;6.988;2024-02-21T05:30:12;9.10;99.90
10692;DHT22;5396;50.950;6.988;2024-02-21T05:32:37;9.10;99.90
10692;DHT22;5396;50.950;6.988;2024-02-21T05:35:03;9.10;99.90
10692;DHT22;5396;50.950;6.988;2024-02-21T05:37:28;9.00;99.90
10692;DHT22;5396;50.950;6.988;2024-02-21T05:39:54;9.00;99.90
10692;DHT22;5396;50.950;6.988;2024-02-21T05:42:19;9.00;99.90
10692;DHT22;5396;50.950;6.988;2024-02-21T05:44:45;9.10;99.90
10692;DHT22;5396;50.950;6.988;2024-02-21T05:47:10;9.10;99.90
10692;DHT22;5396;50.950;6.988;2024-02-21T05:49:37;9.10;99.90
10692;DHT22;5396;50.950;6.988;2024-02-21T05:52:03;9.10;99.90
10692;DHT22;5396;50.950;6.988;2024-02-21T05:54:29;9.10;99.90
10692;DHT22;5396;50.950;6.988;2024-02-21T05:56:55;9.10;99.90
10692;DHT22;5396;50.950;6.988;2024-02-21T05:59:20;9.10;99.90
10692;DHT22;5396;50.950;6.988;2024-02-21T06:01:54;9.10;99.90
10692;DHT22;5396;50.950;6.988;2024-02-21T06:04:19;9.10;99.90
10692;DHT22;5396;50.950;6.988;2024-02-21T06:06:45;9.10;99.90
10692;DHT22;5396;50.950;6.988;2024-02-21T06:09:10;9.10;99.90
10692;DHT22;5396;50.950;6.988;2024-02-21T06:11:36;9.10;99.90
10692;DHT22;5396;50.950;6.988;2024-02-21T06:14:03;9.10;99.90
10692;DHT22;5396;50.950;6.988;2024-02-21T06:16:28;9.10;99.90
10692;DHT22;5396;50.950;6.988;2024-02-21T06:18:54;9.20;99.90
10692;DHT22;5396;50.950;6.988;2024-02-21T06:21:19;9.10;99.90
10692;DHT22;5396;50.950;6.988;2024-02-21T06:23:45;9.10;99.90
10692;DHT22;5396;50.950;6.988;2024-02-21T06:26:10;9.10;99.90
10692;DHT22;5396;50.950;6.988;2024-02-21T06:28:36;9.10;99.90
10692;DHT22;5396;50.950;6.988;2024-02-21T06:31:02;9.10;99.90
10692;DHT22;5396;50.950;6.988;2024-02-21T06:33:27;9.10;99.90
10692;DHT22;5396;50.950;6.988;2024-02-21T06:35:53;9.00;99.90
10692;DHT22;5396;50.950;6.988;2024-02-21T06:38:19;9.00;99.90
10692;DHT22;5396;50.950;6.988;2024-02-21T06:40:45;9.00;99.90
10692;DHT22;5396;50.950;6.988;2024-02-21T06:43:18;9.00;99.90
10692;DHT22;5396;50.950;6.988;2024-02-21T06:45:45;9.00;99.90
10692;DHT22;5396;50.950;6.988;2024-02-21T06:48:13;9.00;99.90
10692;DHT22;5396;50.950;6.988;2024-02-21T06:50:38;9.00;99.90
10692;DHT22;5396;50.950;6.988;2024-02-21T06:53:04;9.00;99.90
10692;DHT22;5396;50.950;6.988;2024-02-21T06:55:29;9.00;99.90
10692;DHT22;5396;50.950;6.988;2024-02-21T06:57:55;9.00;99.90
10692;DHT22;5396;50.950;6.988;2024-02-21T07:00:20;9.00;99.90
10692;DHT22;5396;50.950;6.988;2024-02-21T07:02:46;9.00;99.90
10692;DHT22;5396;50.950;6.988;2024-02-21T07:05:11;9.10;99.90
10692;DHT22;5396;50.950;6.988;2024-02-21T07:07:36;9.10;99.90
10692;DHT22;5396;50.950;6.988;2024-02-21T07:10:05;9.10;99.90
10692;DHT22;5396;50.950;6.988;2024-02-21T07:12:31;9.10;99.90
10692;DHT22;5396;50.950;6.988;2024-02-21T07:14:57;9.10;99.90
10692;DHT22;5396;50.950;6.988;2024-02-21T07:17:22;9.10;99.90
10692;DHT22;5396;50.950;6.988;2024-02-21T07:19:48;9.10;99.90
10692;DHT22;5396;50.950;6.988;2024-02-21T07:22:13;9.10;99.90
10692;DHT22;5396;50.950;6.988;2024-02-21T07:24:39;9.20;99.90
10692;DHT22;5396;50.950;6.988;2024-02-21T07:27:04;9.20;99.90
10692;DHT22;5396;50.950;6.988;2024-02-21T07:29:30;9.20;99.90
10692;DHT22;5396;50.950;6.988;2024-02-21T07:31:56;9.20;99.90
10692;DHT22;5396;50.950;6.988;2024-02-21T07:34:21;9.20;99.90
10692;DHT22;5396;50.950;6.988;2024-02-21T07:36:47;9.20;99.90
10692;DHT22;5396;50.950;6.988;2024-02-21T07:39:12;9.30;99.90
10692;DHT22;5396;50.950;6.988;2024-02-21T07:41:38;9.30;99.90
10692;DHT22;5396;50.950;6.988;2024-02-21T07:44:04;9.30;99.90
10692;DHT22;5396;50.950;6.988;2024-02-21T07:46:30;9.30;99.90
10692;DHT22;5396;50.950;6.988;2024-02-21T07:48:55;9.30;99.90
10692;DHT22;5396;50.950;6.988;2024-02-21T07:51:21;9.30;99.90
10692;DHT22;5396;50.950;6.988;2024-02-21T07:53:46;9.30;99.90
10692;DHT22;5396;50.950;6.988;2024-02-21T07:56:13;9.30;99.90
10692;DHT22;5396;50.950;6.988;2024-02-21T07:58:39;9.30;99.90
10692;DHT22;5396;50.950;6.988;2024-02-21T08:01:05;9.30;99.90
10692;DHT22;5396;50.950;6.988;2024-02-21T08:03:30;9.30;99.90
10692;DHT22;5396;50.950;6.988;2024-02-21T08:05:57;9.30;99.90
10692;DHT22;5396;50.950;6.988;2024-02-21T08:08:24;9.30;99.90
10692;DHT22;5396;50.950;6.988;2024-02-21T08:10:50;9.30;99.90
10692;DHT22;5396;50.950;6.988;2024-02-21T08:13:16;9.30;99.90
10692;DHT22;5396;50.950;6.988;2024-02-21T08:15:41;9.30;99.90
10692;DHT22;5396;50.950;6.988;2024-02-21T08:18:07;9.30;99.90
10692;DHT22;5396;50.950;6.988;2024-02-21T08:20:34;9.20;99.90
10692;DHT22;5396;50.950;6.988;2024-02-21T08:23:00;9.20;99.90
10692;DHT22;5396;50.950;6.988;2024-02-21T08:25:25;9.20;99.90
10692;DHT22;5396;50.950;6.988;2024-02-21T08:27:51;9.20;99.90
10692;DHT22;5396;50.950;6.988;2024-02-21T08:30:19;9.20;99.90
10692;DHT22;5396;50.950;6.988;2024-02-21T08:32:45;9.20;99.90
10692;DHT22;5396;50.950;6.988;2024-02-21T08:35:10;9.20;99.90
10692;DHT22;5396;50.950;6.988;2024-02-21T08:37:38;9.30;99.90
10692;DHT22;5396;50.950;6.988;2024-02-21T08:40:04;9.20;99.90
10692;DHT22;5396;50.950;6.988;2024-02-21T08:42:38;9.30;99.90
10692;DHT22;5396;50.950;6.988;2024-02-21T08:45:04;9.30;99.90
10692;DHT22;5396;50.950;6.988;2024-02-21T08:47:29;9.40;99.90
10692;DHT22;5396;50.950;6.988;2024-02-21T08:49:55;9.40;99.90
10692;DHT22;5396;50.950;6.988;2024-02-21T08:52:20;9.40;99.90
10692;DHT22;5396;50.950;6.988;2024-02-21T08:54:46;9.40;99.90
10692;DHT22;5396;50.950;6.988;2024-02-21T08:57:11;9.40;99.90
10692;DHT22;5396;50.950;6.988;2024-02-21T08:59:39;9.50;99.90
10692;DHT22;5396;50.950;6.988;2024-02-21T09:02:05;9.50;99.90
10692;DHT22;5396;50.950;6.988;2024-02-21T09:04:32;9.50;99.90
10692;DHT22;5396;50.950;6.988;2024-02-21T09:06:58;9.50;99.90
10692;DHT22;5396;50.950;6.988;2024-02-21T09:09:24;9.60;99.90
10692;DHT22;5396;50.950;6.988;2024-02-21T09:11:49;9.70;99.90
10692;DHT22;5396;50.950;6.988;2024-02-21T09:14:15;9.80;99.90
10692;DHT22;5396;50.950;6.988;2024-02-21T09:16:41;9.90;99.90
10692;DHT22;5396;50.950;6.988;2024-02-21T09:19:06;9.90;99.90
10692;DHT22;5396;50.950;6.988;2024-02-21T09:21:36;9.90;99.90
10692;DHT22;5396;50.950;6.988;2024-02-21T09:24:01;9.90;99.90
10692;DHT22;5396;50.950;6.988;2024-02-21T09:26:28;9.90;99.90
10692;DHT22;5396;50.950;6.988;2024-02-21T09:28:53;10.00;99.90
10692;DHT22;5396;50.950;6.988;2024-02-21T09:31:20;10.00;99.90
10692;DHT22;5396;50.950;6.988;2024-02-21T09:33:46;9.90;99.90
10692;DHT22;5396;50.950;6.988;2024-02-21T09:36:11;10.00;99.90
10692;DHT22;5396;50.950;6.988;2024-02-21T09:38:37;10.10;99.90
10692;DHT22;5396;50.950;6.988;2024-02-21T09:41:17;10.20;99.90
10692;DHT22;5396;50.950;6.988;2024-02-21T09:43:43;10.00;99.90
10692;DHT22;5396;50.950;6.988;2024-02-21T09:46:17;10.00;99.90
10692;DHT22;5396;50.950;6.988;2024-02-21T09:49:04;10.00;99.90
10692;DHT22;5396;50.950;6.988;2024-02-21T09:51:36;10.10;99.90
10692;DHT22;5396;50.950;6.988;2024-02-21T09:54:02;10.30;99.90
10692;DHT22;5396;50.950;6.988;2024-02-21T09:56:28;10.30;99.90
10692;DHT22;5396;50.950;6.988;2024-02-21T09:58:54;10.30;99.90
10692;DHT22;5396;50.950;6.988;2024-02-21T10:01:19;10.30;99.90
10692;DHT22;5396;50.950;6.988;2024-02-21T10:03:45;10.30;99.90
10692;DHT22;5396;50.950;6.988;2024-02-21T10:06:10;10.30;99.90
10692;DHT22;5396;50.950;6.988;2024-02-21T10:08:36;10.30;99.90
10692;DHT22;5396;50.950;6.988;2024-02-21T10:11:01;10.40;99.90
10692;DHT22;5396;50.950;6.988;2024-02-21T10:13:28;10.50;99.90
10692;DHT22;5396;50.950;6.988;2024-02-21T10:16:01;10.50;99.90
10692;DHT22;5396;50.950;6.988;2024-02-21T10:18:27;10.40;99.90
10692;DHT22;5396;50.950;6.988;2024-02-21T10:21:02;10.40;99.90
10692;DHT22;5396;50.950;6.988;2024-02-21T10:23:29;10.50;99.90
10692;DHT22;5396;50.950;6.988;2024-02-21T10:26:04;10.50;99.90
10692;DHT22;5396;50.950;6.988;2024-02-21T10:28:29;10.60;99.90
10692;DHT22;5396;50.950;6.988;2024-02-21T10:30:56;10.60;99.90
10692;DHT22;5396;50.950;6.988;2024-02-21T10:33:24;10.70;99.90
10692;DHT22;5396;50.950;6.988;2024-02-21T10:35:50;10.60;99.90
10692;DHT22;5396;50.950;6.988;2024-02-21T10:38:16;10.60;99.90
10692;DHT22;5396;50.950;6.988;2024-02-21T10:40:43;10.70;99.90
10692;DHT22;5396;50.950;6.988;2024-02-21T10:43:11;10.80;99.90
10692;DHT22;5396;50.950;6.988;2024-02-21T10:45:37;10.80;99.90
10692;DHT22;5396;50.950;6.988;2024-02-21T10:48:16;10.80;99.90
10692;DHT22;5396;50.950;6.988;2024-02-21T10:51:00;11.00;99.90
10692;DHT22;5396;50.950;6.988;2024-02-21T10:58:40;11.30;99.90
10692;DHT22;5396;50.950;6.988;2024-02-21T11:01:07;11.40;99.90
10692;DHT22;5396;50.950;6.988;2024-02-21T11:03:33;11.50;99.90
10692;DHT22;5396;50.950;6.988;2024-02-21T11:05:58;11.50;99.90
10692;DHT22;5396;50.950;6.988;2024-02-21T11:08:24;11.40;99.90
10692;DHT22;5396;50.950;6.988;2024-02-21T11:10:56;11.40;99.90
10692;DHT22;5396;50.950;6.988;2024-02-21T11:13:29;11.30;99.90
10692;DHT22;5396;50.950;6.988;2024-02-21T11:16:05;11.30;99.90
10692;DHT22;5396;50.950;6.988;2024-02-21T11:18:30;11.40;99.90
10692;DHT22;5396;50.950;6.988;2024-02-21T11:20:56;11.50;99.90
10692;DHT22;5396;50.950;6.988;2024-02-21T11:23:25;11.60;99.90
10692;DHT22;5396;50.950;6.988;2024-02-21T11:25:51;11.70;99.90
10692;DHT22;5396;50.950;6.988;2024-02-21T11:28:16;11.60;99.90
10692;DHT22;5396;50.950;6.988;2024-02-21T11:30:50;11.60;99.90
10692;DHT22;5396;50.950;6.988;2024-02-21T11:33:16;11.90;99.90
10692;DHT22;5396;50.950;6.988;2024-02-21T11:35:42;12.10;99.90
10692;DHT22;5396;50.950;6.988;2024-02-21T11:38:13;12.00;99.90
10692;DHT22;5396;50.950;6.988;2024-02-21T11:40:46;12.00;99.90
10692;DHT22;5396;50.950;6.988;2024-02-21T11:43:11;11.90;99.90
10692;DHT22;5396;50.950;6.988;2024-02-21T11:45:37;11.90;99.90
10692;DHT22;5396;50.950;6.988;2024-02-21T11:48:07;11.90;99.90
10692;DHT22;5396;50.950;6.988;2024-02-21T11:50:36;12.00;99.90
10692;DHT22;5396;50.950;6.988;2024-02-21T11:53:02;12.00;99.90
10692;DHT22;5396;50.950;6.988;2024-02-21T11:55:28;11.90;99.90
10692;DHT22;5396;50.950;6.988;2024-02-21T11:57:54;11.90;99.90
10692;DHT22;5396;50.950;6.988;2024-02-21T12:00:19;11.80;99.90
10692;DHT22;5396;50.950;6.988;2024-02-21T12:02:46;11.80;99.90
10692;DHT22;5396;50.950;6.988;2024-02-21T12:05:11;11.90;99.90
10692;DHT22;5396;50.950;6.988;2024-02-21T12:07:37;12.00;99.90
10692;DHT22;5396;50.950;6.988;2024-02-21T12:10:09;12.10;99.90
10692;DHT22;5396;50.950;6.988;2024-02-21T12:12:35;12.10;99.90
10692;DHT22;5396;50.950;6.988;2024-02-21T12:15:03;12.10;99.90
10692;DHT22;5396;50.950;6.988;2024-02-21T12:17:30;12.00;99.90
10692;DHT22;5396;50.950;6.988;2024-02-21T12:19:56;12.00;99.90
10692;DHT22;5396;50.950;6.988;2024-02-21T12:22:22;12.00;99.90
10692;DHT22;5396;50.950;6.988;2024-02-21T12:24:47;11.90;99.90
10692;DHT22;5396;50.950;6.988;2024-02-21T12:27:13;11.90;99.90
10692;DHT22;5396;50.950;6.988;2024-02-21T12:29:38;11.90;99.90
10692;DHT22;5396;50.950;6.988;2024-02-21T12:32:04;12.00;99.90
10692;DHT22;5396;50.950;6.988;2024-02-21T12:34:29;12.00;99.90
10692;DHT22;5396;50.950;6.988;2024-02-21T12:36:57;12.00;99.90
10692;DHT22;5396;50.950;6.988;2024-02-21T12:39:23;12.00;99.90
10692;DHT22;5396;50.950;6.988;2024-02-21T12:41:49;12.10;99.90
10692;DHT22;5396;50.950;6.988;2024-02-21T12:44:14;12.10;99.90
10692;DHT22;5396;50.950;6.988;2024-02-21T12:46:41;12.10;99.90
10692;DHT22;5396;50.950;6.988;2024-02-21T12:49:07;12.20;99.90
10692;DHT22;5396;50.950;6.988;2024-02-21T12:51:35;12.20;99.90
10692;DHT22;5396;50.950;6.988;2024-02-21T12:54:01;12.20;99.90
10692;DHT22;5396;50.950;6.988;2024-02-21T12:56:28;12.20;99.90
10692;DHT22;5396;50.950;6.988;2024-02-21T12:58:55;12.10;99.90
10692;DHT22;5396;50.950;6.988;2024-02-21T13:01:20;12.20;99.90
10692;DHT22;5396;50.950;6.988;2024-02-21T13:03:47;12.20;99.90
10692;DHT22;5396;50.950;6.988;2024-02-21T13:06:13;12.30;99.90
10692;DHT22;5396;50.950;6.988;2024-02-21T13:08:39;12.50;99.90
10692;DHT22;5396;50.950;6.988;2024-02-21T13:11:05;12.30;99.90
10692;DHT22;5396;50.950;6.988;2024-02-21T13:13:30;12.30;99.90
10692;DHT22;5396;50.950;6.988;2024-02-21T13:15:57;12.40;99.90
10692;DHT22;5396;50.950;6.988;2024-02-21T13:18:22;12.60;99.90
10692;DHT22;5396;50.950;6.988;2024-02-21T13:20:48;12.60;99.90
10692;DHT22;5396;50.950;6.988;2024-02-21T13:23:13;12.60;99.90
10692;DHT22;5396;50.950;6.988;2024-02-21T13:25:39;12.60;99.90
10692;DHT22;5396;50.950;6.988;2024-02-21T13:28:06;12.50;99.90
10692;DHT22;5396;50.950;6.988;2024-02-21T13:30:32;12.30;99.90
10692;DHT22;5396;50.950;6.988;2024-02-21T13:32:57;12.30;99.90
10692;DHT22;5396;50.950;6.988;2024-02-21T13:35:23;12.40;99.90
10692;DHT22;5396;50.950;6.988;2024-02-21T13:37:49;12.50;99.90
10692;DHT22;5396;50.950;6.988;2024-02-21T13:40:15;12.30;99.90
10692;DHT22;5396;50.950;6.988;2024-02-21T13:42:40;12.30;99.90
10692;DHT22;5396;50.950;6.988;2024-02-21T13:45:06;12.30;99.90
10692;DHT22;5396;50.950;6.988;2024-02-21T13:47:33;12.20;99.90
10692;DHT22;5396;50.950;6.988;2024-02-21T13:49:58;12.10;99.90
10692;DHT22;5396;50.950;6.988;2024-02-21T13:52:24;12.10;99.90
10692;DHT22;5396;50.950;6.988;2024-02-21T13:54:54;12.20;99.90
10692;DHT22;5396;50.950;6.988;2024-02-21T13:57:20;12.10;99.90
10692;DHT22;5396;50.950;6.988;2024-02-21T13:59:45;12.10;99.90
10692;DHT22;5396;50.950;6.988;2024-02-21T14:02:11;12.10;99.90
10692;DHT22;5396;50.950;6.988;2024-02-21T14:04:37;12.10;99.90
10692;DHT22;5396;50.950;6.988;2024-02-21T14:07:02;12.20;99.90
10692;DHT22;5396;50.950;6.988;2024-02-21T14:09:28;12.20;99.90
10692;DHT22;5396;50.950;6.988;2024-02-21T14:11:58;12.20;99.90
10692;DHT22;5396;50.950;6.988;2024-02-21T14:14:23;12.20;99.90
10692;DHT22;5396;50.950;6.988;2024-02-21T14:16:49;12.20;99.90
10692;DHT22;5396;50.950;6.988;2024-02-21T14:19:14;12.30;99.90
10692;DHT22;5396;50.950;6.988;2024-02-21T14:21:40;12.20;99.90
10692;DHT22;5396;50.950;6.988;2024-02-21T14:24:06;12.10;99.90
10692;DHT22;5396;50.950;6.988;2024-02-21T14:26:32;12.10;99.90
10692;DHT22;5396;50.950;6.988;2024-02-21T14:28:57;12.00;99.90
10692;DHT22;5396;50.950;6.988;2024-02-21T14:31:23;12.00;99.90
10692;DHT22;5396;50.950;6.988;2024-02-21T14:33:48;12.00;99.90
10692;DHT22;5396;50.950;6.988;2024-02-21T14:36:14;12.00;99.90
10692;DHT22;5396;50.950;6.988;2024-02-21T14:38:41;12.00;99.90
10692;DHT22;5396;50.950;6.988;2024-02-21T14:41:07;12.10;99.90
10692;DHT22;5396;50.950;6.988;2024-02-21T14:43:32;12.10;99.90
10692;DHT22;5396;50.950;6.988;2024-02-21T14:45:59;12.20;99.90
10692;DHT22;5396;50.950;6.988;2024-02-21T14:48:25;12.10;99.90
10692;DHT22;5396;50.950;6.988;2024-02-21T14:50:51;12.20;99.90
10692;DHT22;5396;50.950;6.988;2024-02-21T14:53:16;12.30;99.90
10692;DHT22;5396;50.950;6.988;2024-02-21T14:55:42;12.20;99.90
10692;DHT22;5396;50.950;6.988;2024-02-21T14:58:07;12.20;99.90
10692;DHT22;5396;50.950;6.988;2024-02-21T15:00:33;12.10;99.90
10692;DHT22;5396;50.950;6.988;2024-02-21T15:02:59;12.10;99.90
10692;DHT22;5396;50.950;6.988;2024-02-21T15:05:24;12.20;99.90
10692;DHT22;5396;50.950;6.988;2024-02-21T15:07:50;12.20;99.90
10692;DHT22;5396;50.950;6.988;2024-02-21T15:10:16;12.20;99.90
10692;DHT22;5396;50.950;6.988;2024-02-21T15:12:44;12.10;99.90
10692;DHT22;5396;50.950;6.988;2024-02-21T15:15:10;12.10;99.90
10692;DHT22;5396;50.950;6.988;2024-02-21T15:17:37;12.10;99.90
10692;DHT22;5396;50.950;6.988;2024-02-21T15:20:02;12.00;99.90
10692;DHT22;5396;50.950;6.988;2024-02-21T15:22:30;12.00;99.90
10692;DHT22;5396;50.950;6.988;2024-02-21T15:24:55;12.00;99.90
10692;DHT22;5396;50.950;6.988;2024-02-21T15:27:21;11.90;99.90
10692;DHT22;5396;50.950;6.988;2024-02-21T15:29:46;11.80;99.90
10692;DHT22;5396;50.950;6.988;2024-02-21T15:32:12;11.80;99.90
10692;DHT22;5396;50.950;6.988;2024-02-21T15:34:37;11.80;99.90
10692;DHT22;5396;50.950;6.988;2024-02-21T15:37:04;11.80;99.90
10692;DHT22;5396;50.950;6.988;2024-02-21T15:39:29;11.70;99.90
10692;DHT22;5396;50.950;6.988;2024-02-21T15:41:55;11.70;99.90
10692;DHT22;5396;50.950;6.988;2024-02-21T15:44:23;11.70;99.90
10692;DHT22;5396;50.950;6.988;2024-02-21T15:46:49;11.70;99.90
10692;DHT22;5396;50.950;6.988;2024-02-21T15:49:16;11.70;99.90
10692;DHT22;5396;50.950;6.988;2024-02-21T15:51:41;11.70;99.90
10692;DHT22;5396;50.950;6.988;2024-02-21T15:54:07;11.70;99.90